Pagrindinis puslapis
METAR-TAF:

METAR-TAF

Oro uostai :

Sandnessjøen, Norvegija

platuma: 65-58N, ilguma: 012-28E, Aukštis: 1 m

Dabartinis oras

Ataskaita buvo paskelbta 7 valandos ir 19 minutes, ne 19:20 UTC
Vėjas 6 kt nuo kintamojo kryptimis
Temperatūra 1°C
Drėgmė 75%
Slėgis 985 hPa
Matomumas: 3000 m
sniegas

METAR: ENST 011920Z VRB06KT 6000 3000SW -SN VV009 01/M03 Q0985 RMK WIND 300FT VRB07KT

Laikas: 04:39 (02:39 UTC)


TAF: trūkstamas

Orai ataskaitas ir orų prognozės (METAR, TAF).

turimą stotys yra geltonos ir raudonos taškus žemėlapyje.

Perkelti pele per norėdami pamatyti stoties vardą.

Tada spustelėkite, norėdami matyti oro stebėjimo ir prognozės.

Norėdami pakeisti žemėlapį: spustelėkite ant žalios mygtukų su juodo kryžiaus žemyn,; žalią mygtuką su brūkšneliu, jei norite nutolinti; arba žalių rodyklių gretimoms žemėlapius.


METAR-TAF: